Time;durP1;ratioP1;P1;durP2;ratioP2;P2;SDS_P1;SDS_P2;PMS_P1;PMS_P2;Temp;Humidity;BMP_temperature;BMP_pressure;BME280_temperature;BME280_humidity;BME280_pressure;Samples;Min_cycle;Max_cycle;Signal;HPM_P1;HPM_P2
2022/10/28 00:00:52;;;;;;;6.40;4.70;;;15.80;99.90;;;;;;5073536;28;20484;-64
2022/10/28 00:03:19;;;;;;;9.80;4.50;;;15.90;99.90;;;;;;5073331;28;20807;-64
2022/10/28 00:05:47;;;;;;;7.50;4.87;;;15.80;99.90;;;;;;5073339;28;20459;-63
2022/10/28 00:08:14;;;;;;;10.47;5.80;;;15.90;99.90;;;;;;5073273;28;20451;-64
2022/10/28 00:10:41;;;;;;;5.27;4.77;;;15.90;99.90;;;;;;5073163;28;20445;-64
2022/10/28 00:13:09;;;;;;;12.90;5.37;;;16.00;99.90;;;;;;5073106;28;20484;-64
2022/10/28 00:15:37;;;;;;;7.03;5.03;;;15.90;99.90;;;;;;5073498;28;20432;-64
2022/10/28 00:18:04;;;;;;;7.67;4.37;;;15.90;99.90;;;;;;5073087;28;20446;-62
2022/10/28 00:20:31;;;;;;;11.70;4.87;;;15.90;99.90;;;;;;5072964;28;21013;-64
2022/10/28 00:22:58;;;;;;;9.73;5.20;;;15.80;99.90;;;;;;5072982;28;20529;-62
2022/10/28 00:25:25;;;;;;;8.40;4.97;;;15.90;99.90;;;;;;5073005;28;20946;-62
2022/10/28 00:27:53;;;;;;;6.07;4.33;;;15.80;99.90;;;;;;5073440;28;20444;-62
2022/10/28 00:30:21;;;;;;;6.93;4.70;;;15.80;99.90;;;;;;5073298;28;20533;-63
2022/10/28 00:32:48;;;;;;;13.37;5.00;;;15.80;99.90;;;;;;5073200;28;20803;-62
2022/10/28 00:35:15;;;;;;;8.23;4.60;;;15.80;99.90;;;;;;5073010;28;20448;-62
2022/10/28 00:37:43;;;;;;;8.20;5.00;;;15.70;99.90;;;;;;5073595;28;20449;-63
2022/10/28 00:40:11;;;;;;;11.67;5.00;;;15.80;99.90;;;;;;5072875;28;20495;-62
2022/10/28 00:42:38;;;;;;;6.53;4.50;;;15.70;99.90;;;;;;5073044;28;20472;-62
2022/10/28 00:45:06;;;;;;;8.37;4.43;;;15.70;99.90;;;;;;5072998;28;20433;-62
2022/10/28 00:47:43;;;;;;;12.90;5.03;;;15.70;99.90;;;;;;5072821;28;20444;-63
2022/10/28 00:50:23;;;;;;;7.73;5.17;;;15.70;99.90;;;;;;5073115;28;20433;-62
2022/10/28 00:52:54;;;;;;;10.30;4.63;;;15.80;99.90;;;;;;5073025;28;20460;-62
2022/10/28 00:55:22;;;;;;;14.40;4.70;;;15.80;99.90;;;;;;5076362;28;20429;-62
2022/10/28 00:57:49;;;;;;;6.10;4.53;;;15.80;99.90;;;;;;5076710;28;20506;-62
2022/10/28 01:00:17;;;;;;;8.57;5.17;;;15.80;99.90;;;;;;5076548;28;20490;-62
2022/10/28 01:02:48;;;;;;;6.47;4.20;;;15.80;99.90;;;;;;5076983;28;20474;-63
2022/10/28 01:05:20;;;;;;;6.47;4.40;;;15.80;99.90;;;;;;5077057;28;20429;-62
2022/10/28 01:07:47;;;;;;;9.83;4.47;;;15.80;99.90;;;;;;5076837;28;20791;-63
2022/10/28 01:10:15;;;;;;;10.63;5.10;;;15.90;99.90;;;;;;5076779;28;20578;-63
2022/10/28 01:12:57;;;;;;;4.90;4.40;;;15.90;99.90;;;;;;5076488;28;20963;-62
2022/10/28 01:15:31;;;;;;;5.80;4.60;;;16.10;99.90;;;;;;5076204;28;20593;-62
2022/10/28 01:18:12;;;;;;;9.40;4.53;;;16.20;99.90;;;;;;5076464;28;20431;-62
2022/10/28 01:21:18;;;;;;;8.00;5.13;;;16.40;99.90;;;;;;5076472;28;20823;-62
2022/10/28 01:23:56;;;;;;;6.63;4.20;;;16.50;99.90;;;;;;5076585;28;20815;-62
2022/10/28 01:26:44;;;;;;;10.43;4.83;;;16.60;99.90;;;;;;5076346;28;20428;-62
2022/10/28 01:29:59;;;;;;;7.33;5.03;;;16.70;99.90;;;;;;5076233;28;20431;-63
2022/10/28 01:32:35;;;;;;;7.00;4.97;;;16.70;99.90;;;;;;5070227;28;20492;-62
2022/10/28 01:35:15;;;;;;;9.83;5.30;;;16.50;99.90;;;;;;5076372;28;20426;-62
2022/10/28 01:37:49;;;;;;;10.23;5.20;;;16.50;99.90;;;;;;5076289;28;20463;-63
2022/10/28 01:40:26;;;;;;;4.77;4.23;;;16.40;99.90;;;;;;5076000;28;20464;-62
2022/10/28 01:43:00;;;;;;;7.97;4.50;;;16.50;99.90;;;;;;5076129;28;20468;-62
2022/10/28 01:45:34;;;;;;;10.20;4.50;;;16.60;99.90;;;;;;5076181;28;20429;-63
2022/10/28 01:48:06;;;;;;;10.37;4.37;;;16.70;99.90;;;;;;5075863;28;20624;-63
2022/10/28 01:50:38;;;;;;;8.10;4.47;;;16.80;99.90;;;;;;5075683;28;20520;-63
2022/10/28 01:53:10;;;;;;;13.90;4.63;;;16.90;99.90;;;;;;5076077;28;20479;-62
2022/10/28 01:55:40;;;;;;;11.90;5.20;;;17.00;99.90;;;;;;5076097;28;20435;-62
2022/10/28 01:58:09;;;;;;;24.97;5.40;;;16.90;99.90;;;;;;5075749;28;20448;-62
2022/10/28 02:00:37;;;;;;;10.50;3.73;;;16.90;99.90;;;;;;5075651;28;20480;-62
2022/10/28 02:03:09;;;;;;;5.67;4.30;;;16.90;99.90;;;;;;5075817;28;20560;-62
2022/10/28 02:05:42;;;;;;;7.87;4.60;;;16.90;99.90;;;;;;5074155;28;20436;-62
2022/10/28 02:08:35;;;;;;;8.10;4.40;;;16.80;99.90;;;;;;5075511;28;20451;-64
2022/10/28 02:11:29;;;;;;;8.63;4.53;;;16.80;99.90;;;;;;5075701;28;20433;-62
2022/10/28 02:14:07;;;;;;;8.70;4.73;;;16.70;99.90;;;;;;5075374;28;20486;-63
2022/10/28 02:16:43;;;;;;;6.30;4.47;;;16.70;99.90;;;;;;5075453;28;20823;-62
2022/10/28 02:19:19;;;;;;;11.50;5.70;;;16.70;99.90;;;;;;5075484;28;20436;-62
2022/10/28 02:21:55;;;;;;;9.10;4.53;;;16.70;99.90;;;;;;5075167;28;20471;-62
2022/10/28 02:24:30;;;;;;;4.40;4.00;;;16.60;99.90;;;;;;5075505;28;20764;-62
2022/10/28 02:27:05;;;;;;;9.20;4.70;;;16.50;99.90;;;;;;5075508;28;20439;-62
2022/10/28 02:29:37;;;;;;;8.20;4.50;;;16.40;99.90;;;;;;5075145;28;20439;-62
2022/10/28 02:32:07;;;;;;;6.67;5.10;;;16.30;99.90;;;;;;5075290;28;20463;-62
2022/10/28 02:34:40;;;;;;;6.00;5.03;;;16.20;99.90;;;;;;5075003;28;20432;-63
2022/10/28 02:37:11;;;;;;;14.47;4.73;;;16.30;99.90;;;;;;5075033;28;20439;-62
2022/10/28 02:39:43;;;;;;;5.30;4.10;;;16.50;99.90;;;;;;5075215;28;20436;-62
2022/10/28 02:42:15;;;;;;;6.70;4.57;;;16.70;99.90;;;;;;5074636;28;20488;-63
2022/10/28 02:44:47;;;;;;;7.13;4.70;;;16.80;99.90;;;;;;5074881;28;20784;-62
2022/10/28 02:47:18;;;;;;;6.90;4.27;;;16.80;99.90;;;;;;5074818;28;20907;-62
2022/10/28 02:49:56;;;;;;;9.83;5.27;;;16.80;99.90;;;;;;5074643;28;20448;-62
2022/10/28 02:52:28;;;;;;;3.90;3.40;;;16.80;99.90;;;;;;5074835;28;20471;-62
2022/10/28 02:54:57;;;;;;;7.00;4.70;;;16.80;99.90;;;;;;5074835;28;20429;-62
2022/10/28 02:57:26;;;;;;;8.20;4.80;;;16.80;99.90;;;;;;5074520;28;20439;-62
2022/10/28 02:59:55;;;;;;;5.37;4.87;;;16.80;99.90;;;;;;5074394;28;20452;-62
2022/10/28 03:02:22;;;;;;;10.20;5.00;;;16.70;99.90;;;;;;5074359;28;20448;-62
2022/10/28 03:04:51;;;;;;;10.17;5.40;;;16.60;99.90;;;;;;5074585;28;20445;-62
2022/10/28 03:07:18;;;;;;;4.77;3.97;;;16.60;99.90;;;;;;5074641;28;20543;-62
2022/10/28 03:09:45;;;;;;;6.83;3.87;;;16.50;99.90;;;;;;5074470;28;20448;-63
2022/10/28 03:12:12;;;;;;;9.30;5.33;;;16.40;99.90;;;;;;5074113;28;20464;-62
2022/10/28 03:14:39;;;;;;;9.03;4.70;;;16.50;99.90;;;;;;5074114;28;20510;-62
2022/10/28 03:17:07;;;;;;;8.77;4.10;;;16.60;99.90;;;;;;5073649;28;20424;-63
2022/10/28 03:19:34;;;;;;;9.90;4.90;;;16.50;99.90;;;;;;5073806;28;20448;-62
2022/10/28 03:22:03;;;;;;;7.40;4.87;;;16.40;99.90;;;;;;5074478;28;20515;-62
2022/10/28 03:24:30;;;;;;;6.90;4.53;;;16.50;99.90;;;;;;5074218;28;20531;-62
2022/10/28 03:26:57;;;;;;;9.73;4.93;;;16.60;99.90;;;;;;5074122;28;20448;-62
2022/10/28 03:29:24;;;;;;;7.27;4.43;;;16.60;99.90;;;;;;5074218;28;20802;-62
2022/10/28 03:31:52;;;;;;;7.83;5.40;;;16.60;99.90;;;;;;5073812;28;20452;-62
2022/10/28 03:34:19;;;;;;;8.53;4.60;;;16.60;99.90;;;;;;5073702;28;20448;-62
2022/10/28 03:36:46;;;;;;;7.20;4.50;;;16.60;99.90;;;;;;5073768;28;20451;-62
2022/10/28 03:39:14;;;;;;;10.83;5.07;;;16.30;99.90;;;;;;5073758;28;20440;-62
2022/10/28 03:41:42;;;;;;;7.70;5.90;;;16.20;99.90;;;;;;5073428;28;21006;-63
2022/10/28 03:44:09;;;;;;;9.00;6.03;;;16.00;99.90;;;;;;5073898;28;20938;-62
2022/10/28 03:46:36;;;;;;;4.93;4.50;;;16.00;99.90;;;;;;5073806;28;20820;-62
2022/10/28 03:49:03;;;;;;;8.30;5.10;;;16.10;99.90;;;;;;5073761;28;20602;-63
2022/10/28 03:51:30;;;;;;;6.73;5.10;;;16.10;99.90;;;;;;5073704;28;20436;-62
2022/10/28 03:53:58;;;;;;;11.93;5.60;;;16.10;99.90;;;;;;5073387;28;20475;-62
2022/10/28 03:56:26;;;;;;;6.63;5.60;;;16.00;99.90;;;;;;5073604;28;20452;-62
2022/10/28 03:58:53;;;;;;;9.67;5.53;;;16.00;99.90;;;;;;5073651;28;20532;-62
2022/10/28 04:01:20;;;;;;;9.07;5.80;;;15.90;99.90;;;;;;5073697;28;20822;-62
2022/10/28 04:03:48;;;;;;;8.77;5.20;;;15.80;99.90;;;;;;5073531;28;20464;-62
2022/10/28 04:06:15;;;;;;;11.57;5.60;;;15.80;99.90;;;;;;5073320;28;20444;-62
2022/10/28 04:08:42;;;;;;;8.53;4.90;;;15.80;99.90;;;;;;5073552;28;20537;-62
2022/10/28 04:11:09;;;;;;;5.93;4.93;;;15.80;99.90;;;;;;5073228;28;20956;-62
2022/10/28 04:13:38;;;;;;;6.53;5.30;;;15.70;99.90;;;;;;5072846;28;20496;-63
2022/10/28 04:16:06;;;;;;;10.13;4.93;;;15.70;99.90;;;;;;5073270;28;20927;-62
2022/10/28 04:18:34;;;;;;;11.37;6.10;;;15.60;99.90;;;;;;5073460;28;20817;-62
2022/10/28 04:21:01;;;;;;;12.90;5.27;;;15.60;99.90;;;;;;5073179;28;20598;-63
2022/10/28 04:23:28;;;;;;;11.10;5.60;;;15.50;99.90;;;;;;5073409;28;20467;-62
2022/10/28 04:25:56;;;;;;;7.60;5.13;;;15.60;99.90;;;;;;5073151;28;20510;-62
2022/10/28 04:28:24;;;;;;;9.83;5.60;;;15.60;99.90;;;;;;5072107;28;20441;-62
2022/10/28 04:30:52;;;;;;;9.30;5.40;;;15.60;99.90;;;;;;5073410;28;20841;-62
2022/10/28 04:33:19;;;;;;;7.07;5.40;;;15.60;99.90;;;;;;5072996;28;20468;-62
2022/10/28 04:35:46;;;;;;;10.33;5.67;;;15.60;99.90;;;;;;5072955;28;21006;-62
2022/10/28 04:38:14;;;;;;;10.53;6.70;;;15.50;99.90;;;;;;5072968;28;20965;-62
2022/10/28 04:40:42;;;;;;;9.33;5.30;;;15.60;99.90;;;;;;5072950;28;20939;-62
2022/10/28 04:43:10;;;;;;;7.47;5.50;;;15.60;99.90;;;;;;5073078;28;20472;-62
2022/10/28 04:45:38;;;;;;;5.30;4.60;;;15.70;99.90;;;;;;5072782;28;21016;-63
2022/10/28 04:48:08;;;;;;;10.73;5.87;;;15.70;99.90;;;;;;5073130;28;20451;-62
2022/10/28 04:50:36;;;;;;;8.57;5.70;;;15.80;99.90;;;;;;5072955;28;20456;-63
2022/10/28 04:53:03;;;;;;;9.33;4.87;;;15.80;99.90;;;;;;5072551;28;20967;-62
2022/10/28 04:55:30;;;;;;;7.33;4.43;;;15.90;99.90;;;;;;5072890;28;20432;-63
2022/10/28 04:57:59;;;;;;;9.53;5.63;;;16.20;99.90;;;;;;5073045;28;20451;-62
2022/10/28 05:00:28;;;;;;;9.47;6.20;;;16.30;99.90;;;;;;5072957;28;20467;-62
2022/10/28 05:02:56;;;;;;;6.93;5.00;;;16.30;99.90;;;;;;5072828;28;20491;-63
2022/10/28 05:05:24;;;;;;;12.20;6.83;;;16.20;99.90;;;;;;5072699;28;20536;-63
2022/10/28 05:07:51;;;;;;;10.60;6.30;;;16.10;99.90;;;;;;5072885;28;20449;-63
2022/10/28 05:10:19;;;;;;;8.67;5.63;;;16.00;99.90;;;;;;5072847;28;20483;-63
2022/10/28 05:12:46;;;;;;;5.50;5.03;;;15.70;99.90;;;;;;5072457;28;20460;-63
2022/10/28 05:15:15;;;;;;;23.50;6.27;;;15.70;99.90;;;;;;5072432;28;20487;-63
2022/10/28 05:17:43;;;;;;;11.67;6.43;;;15.60;99.90;;;;;;5072803;28;20449;-63
2022/10/28 05:20:11;;;;;;;10.50;6.20;;;15.60;99.90;;;;;;5072334;28;20945;-63
2022/10/28 05:22:46;;;;;;;10.20;5.63;;;15.50;99.90;;;;;;5072291;28;20495;-63
2022/10/28 05:25:13;;;;;;;7.70;5.87;;;15.60;99.90;;;;;;5072389;28;20828;-63
2022/10/28 05:27:40;;;;;;;9.80;5.83;;;15.60;99.90;;;;;;5072783;28;20531;-62
2022/10/28 05:30:09;;;;;;;8.23;5.80;;;15.60;99.90;;;;;;5072117;28;21007;-63
2022/10/28 05:32:36;;;;;;;6.70;5.70;;;15.50;99.90;;;;;;5072051;28;20559;-62
2022/10/28 05:35:04;;;;;;;7.93;5.80;;;15.50;99.90;;;;;;5072101;28;20571;-63
2022/10/28 05:37:31;;;;;;;12.20;8.10;;;15.60;99.90;;;;;;5072085;28;20931;-63
2022/10/28 05:40:00;;;;;;;10.03;6.03;;;15.50;99.90;;;;;;5073424;28;20460;-63
2022/10/28 05:42:27;;;;;;;7.20;5.70;;;15.50;99.90;;;;;;5075210;28;20488;-63
2022/10/28 05:44:54;;;;;;;8.80;6.20;;;15.50;99.90;;;;;;5075687;28;20431;-63
2022/10/28 05:47:21;;;;;;;10.07;6.07;;;15.50;99.90;;;;;;5075452;28;20484;-63
2022/10/28 05:49:48;;;;;;;10.37;5.77;;;15.50;99.90;;;;;;5075624;28;20450;-63
2022/10/28 05:52:16;;;;;;;6.00;4.63;;;15.60;99.90;;;;;;5075545;28;20772;-63
2022/10/28 05:54:43;;;;;;;11.23;5.53;;;15.70;99.90;;;;;;5075310;28;20531;-63
2022/10/28 05:57:11;;;;;;;10.73;5.50;;;15.80;99.90;;;;;;5075766;28;20448;-63
2022/10/28 05:59:38;;;;;;;9.70;4.87;;;15.90;99.90;;;;;;5075786;28;20444;-63
2022/10/28 06:02:06;;;;;;;7.07;4.73;;;16.20;99.90;;;;;;5075078;28;20495;-63
2022/10/28 06:04:33;;;;;;;8.43;5.33;;;16.30;99.90;;;;;;5075392;28;20440;-61
2022/10/28 06:07:00;;;;;;;15.53;4.57;;;16.30;99.90;;;;;;5075395;28;20445;-62
2022/10/28 06:09:28;;;;;;;13.57;4.90;;;16.40;99.90;;;;;;5075477;28;20448;-63
2022/10/28 06:11:55;;;;;;;10.07;5.50;;;16.40;99.90;;;;;;5075035;28;20444;-63
2022/10/28 06:14:24;;;;;;;9.53;5.03;;;16.30;99.90;;;;;;5074456;28;20483;-63
2022/10/28 06:16:51;;;;;;;11.20;5.77;;;16.30;99.90;;;;;;5074824;28;20449;-63
2022/10/28 06:19:18;;;;;;;11.20;5.23;;;16.30;99.90;;;;;;5074753;28;20507;-62
2022/10/28 06:21:45;;;;;;;9.77;5.70;;;16.30;99.90;;;;;;5074587;28;20480;-62
2022/10/28 06:24:12;;;;;;;7.30;4.30;;;16.30;99.90;;;;;;5074614;28;20962;-63
2022/10/28 06:26:39;;;;;;;13.30;5.30;;;16.40;99.90;;;;;;5074506;28;20491;-63
2022/10/28 06:29:06;;;;;;;8.77;5.17;;;16.70;99.90;;;;;;5075169;28;20444;-62
2022/10/28 06:31:35;;;;;;;14.13;5.73;;;16.70;99.90;;;;;;5074758;28;20639;-63
2022/10/28 06:34:04;;;;;;;6.90;4.60;;;16.70;99.90;;;;;;5074592;28;20507;-63
2022/10/28 06:36:31;;;;;;;9.23;4.37;;;16.70;99.90;;;;;;5074403;28;20957;-63
2022/10/28 06:38:58;;;;;;;11.90;6.07;;;16.70;99.90;;;;;;5075058;28;20441;-63
2022/10/28 06:41:25;;;;;;;17.27;4.97;;;16.70;99.90;;;;;;5074204;28;21061;-63
2022/10/28 06:43:53;;;;;;;8.20;4.37;;;16.70;99.90;;;;;;5074583;28;20508;-63
2022/10/28 06:46:20;;;;;;;6.63;5.23;;;16.60;99.90;;;;;;5074481;28;20532;-63
2022/10/28 06:48:48;;;;;;;11.37;4.73;;;16.50;99.90;;;;;;5074345;28;20592;-63
2022/10/28 06:51:16;;;;;;;14.53;5.67;;;16.50;99.90;;;;;;5073379;28;20444;-63
2022/10/28 06:53:43;;;;;;;14.90;5.70;;;16.50;99.90;;;;;;5074300;28;20857;-63
2022/10/28 06:56:10;;;;;;;11.70;4.97;;;16.50;99.90;;;;;;5074090;28;20471;-63
2022/10/28 06:58:37;;;;;;;9.43;5.10;;;16.50;99.90;;;;;;5074365;28;20445;-63
2022/10/28 07:01:05;;;;;;;22.30;6.13;;;16.60;99.90;;;;;;5074336;28;20446;-63
2022/10/28 07:03:32;;;;;;;6.40;4.83;;;16.60;99.90;;;;;;5073977;28;20538;-63
2022/10/28 07:06:01;;;;;;;14.10;6.00;;;16.60;99.90;;;;;;5073870;28;20813;-63
2022/10/28 07:08:28;;;;;;;11.27;5.40;;;16.60;99.90;;;;;;5074456;28;20816;-63
2022/10/28 07:10:56;;;;;;;11.90;5.67;;;16.60;99.90;;;;;;5074285;28;20586;-63
2022/10/28 07:13:24;;;;;;;7.20;4.93;;;16.60;99.90;;;;;;5073479;28;20476;-63
2022/10/28 07:15:55;;;;;;;7.00;4.50;;;16.70;99.90;;;;;;5074188;28;20445;-63
2022/10/28 07:18:22;;;;;;;10.13;4.67;;;16.70;99.90;;;;;;5074159;28;20855;-63
2022/10/28 07:20:49;;;;;;;9.27;5.43;;;16.70;99.90;;;;;;5073769;28;20452;-62
2022/10/28 07:23:18;;;;;;;13.67;5.93;;;16.80;99.90;;;;;;5073363;28;20495;-63
2022/10/28 07:25:52;;;;;;;10.60;6.90;;;16.90;99.90;;;;;;5073890;28;20446;-63
2022/10/28 07:28:19;;;;;;;10.70;5.17;;;16.90;99.90;;;;;;5073789;28;20424;-63
2022/10/28 07:30:46;;;;;;;14.40;6.17;;;17.00;99.90;;;;;;5073571;28;20444;-63
2022/10/28 07:33:13;;;;;;;11.23;6.50;;;17.00;99.90;;;;;;5073506;28;20551;-62
2022/10/28 07:35:41;;;;;;;14.70;4.40;;;17.10;99.90;;;;;;5073443;28;20455;-63
2022/10/28 07:38:09;;;;;;;13.00;4.77;;;17.10;99.90;;;;;;5073594;28;20451;-63
2022/10/28 07:40:38;;;;;;;21.23;4.67;;;17.20;99.90;;;;;;5073618;28;20445;-63
2022/10/28 07:43:05;;;;;;;6.73;3.70;;;17.30;99.90;;;;;;5073232;28;20492;-63
2022/10/28 07:45:32;;;;;;;8.97;3.47;;;17.40;99.90;;;;;;5072858;28;20527;-62
2022/10/28 07:47:59;;;;;;;13.10;4.03;;;17.50;99.90;;;;;;5073542;28;20805;-63
2022/10/28 07:50:26;;;;;;;7.57;4.77;;;17.60;99.90;;;;;;5073584;28;20444;-62
2022/10/28 07:52:53;;;;;;;7.10;4.40;;;17.70;99.90;;;;;;5073368;28;20974;-63
2022/10/28 07:55:21;;;;;;;10.03;4.30;;;17.70;99.90;;;;;;5073013;28;20856;-63
2022/10/28 07:57:50;;;;;;;8.10;3.67;;;17.80;99.90;;;;;;5073560;28;20445;-63
2022/10/28 08:00:17;;;;;;;4.60;3.60;;;17.90;99.90;;;;;;5072939;28;20455;-63
2022/10/28 08:02:44;;;;;;;16.83;4.40;;;17.90;99.90;;;;;;5073120;28;20583;-63
2022/10/28 08:05:11;;;;;;;10.60;4.50;;;17.90;99.90;;;;;;5072835;28;20444;-63
2022/10/28 08:07:39;;;;;;;9.53;3.27;;;18.00;99.90;;;;;;5073170;28;20428;-63
2022/10/28 08:10:07;;;;;;;18.20;6.87;;;18.10;99.90;;;;;;5072757;28;20452;-63
2022/10/28 08:12:34;;;;;;;8.93;5.40;;;18.10;99.90;;;;;;5073114;28;20464;-63
2022/10/28 08:15:04;;;;;;;9.33;5.80;;;17.80;99.90;;;;;;5072641;28;20491;-63
2022/10/28 08:17:31;;;;;;;9.03;5.73;;;17.70;99.90;;;;;;5073196;28;20446;-63
2022/10/28 08:19:58;;;;;;;26.07;9.37;;;17.60;99.90;;;;;;5073102;28;20591;-63
2022/10/28 08:22:25;;;;;;;12.17;6.63;;;17.60;99.90;;;;;;5072596;28;20484;-63
2022/10/28 08:24:52;;;;;;;11.30;6.70;;;17.70;99.90;;;;;;5072822;28;20451;-63
2022/10/28 08:27:19;;;;;;;10.40;4.40;;;17.60;99.90;;;;;;5072789;28;20919;-63
2022/10/28 08:29:46;;;;;;;16.10;5.30;;;17.70;99.90;;;;;;5072942;28;20448;-63
2022/10/28 08:32:15;;;;;;;8.60;5.77;;;17.80;99.90;;;;;;5072449;28;20582;-62
2022/10/28 08:34:42;;;;;;;9.70;6.33;;;17.90;99.90;;;;;;5072683;28;20455;-63
2022/10/28 08:37:09;;;;;;;15.77;6.30;;;18.00;99.90;;;;;;5072724;28;20454;-63
2022/10/28 08:39:36;;;;;;;9.50;4.67;;;18.00;99.90;;;;;;5072594;28;20536;-63
2022/10/28 08:42:21;;;;;;;9.67;6.37;;;18.10;99.90;;;;;;5072577;28;20523;-63
2022/10/28 08:45:16;;;;;;;23.30;7.63;;;18.20;99.90;;;;;;5072403;28;20777;-63
2022/10/28 08:47:53;;;;;;;14.73;5.30;;;18.00;99.90;;;;;;5072863;28;20432;-63
2022/10/28 08:50:23;;;;;;;6.83;5.70;;;18.10;99.90;;;;;;5072679;28;20428;-63
2022/10/28 08:52:54;;;;;;;13.03;6.93;;;18.10;99.90;;;;;;5072211;28;20840;-63
2022/10/28 08:55:25;;;;;;;11.30;6.53;;;18.20;99.90;;;;;;5072536;28;20409;-63
2022/10/28 08:57:54;;;;;;;8.27;6.07;;;18.20;99.90;;;;;;5072431;28;20433;-64
2022/10/28 09:00:25;;;;;;;14.80;6.00;;;18.30;99.90;;;;;;5072629;28;20800;-63
2022/10/28 09:03:21;;;;;;;14.27;6.37;;;18.40;99.90;;;;;;5072797;28;20484;-63
2022/10/28 09:05:53;;;;;;;11.30;5.93;;;18.50;99.90;;;;;;5064850;28;20539;-63
2022/10/28 09:08:23;;;;;;;16.33;7.57;;;18.60;99.90;;;;;;5072493;28;20424;-63
2022/10/28 09:11:06;;;;;;;16.73;6.20;;;18.70;99.90;;;;;;5072053;28;20523;-63
2022/10/28 09:13:46;;;;;;;10.00;5.23;;;18.80;99.90;;;;;;5071899;28;20488;-63
2022/10/28 09:16:23;;;;;;;6.73;4.93;;;18.80;99.90;;;;;;5075492;28;20434;-63
2022/10/28 09:18:54;;;;;;;13.80;5.47;;;18.90;99.90;;;;;;5076055;28;20454;-63
2022/10/28 09:21:26;;;;;;;12.80;5.10;;;19.00;99.90;;;;;;5075917;28;20455;-63
2022/10/28 09:23:57;;;;;;;10.27;3.90;;;19.00;99.90;;;;;;5075971;28;20488;-63
2022/10/28 09:26:37;;;;;;;9.27;6.30;;;19.10;99.90;;;;;;5075693;28;20535;-63
2022/10/28 09:29:37;;;;;;;17.30;6.67;;;19.00;99.90;;;;;;5075713;28;20887;-63
2022/10/28 09:32:14;;;;;;;14.87;7.17;;;18.90;99.90;;;;;;5070860;28;20476;-63
2022/10/28 09:34:47;;;;;;;9.87;5.00;;;18.90;99.90;;;;;;5075618;28;20428;-63
2022/10/28 09:37:18;;;;;;;9.97;5.03;;;18.90;99.90;;;;;;5076102;28;20431;-63
2022/10/28 09:39:49;;;;;;;9.30;5.20;;;18.90;99.90;;;;;;5075803;28;20758;-63
2022/10/28 09:42:21;;;;;;;9.03;4.93;;;18.90;99.90;;;;;;5075560;28;20459;-63
2022/10/28 09:44:52;;;;;;;14.80;7.67;;;18.80;99.90;;;;;;5076005;28;20440;-62
2022/10/28 09:47:22;;;;;;;13.70;6.40;;;18.70;99.90;;;;;;5075677;28;20428;-63
2022/10/28 09:49:56;;;;;;;11.60;4.93;;;18.70;99.90;;;;;;5075722;28;20451;-63
2022/10/28 09:52:26;;;;;;;17.53;5.60;;;18.90;99.90;;;;;;5075377;28;20464;-63
2022/10/28 09:54:55;;;;;;;17.77;5.83;;;19.10;99.90;;;;;;5075178;28;20809;-62
2022/10/28 09:57:24;;;;;;;15.37;5.80;;;19.30;99.90;;;;;;5075241;28;20771;-63
2022/10/28 09:59:52;;;;;;;12.30;6.23;;;19.50;99.90;;;;;;5075500;28;20444;-63
2022/10/28 10:02:27;;;;;;;9.03;5.67;;;19.70;99.90;;;;;;5075327;28;20888;-63
2022/10/28 10:04:57;;;;;;;13.33;5.00;;;20.10;99.90;;;;;;5075299;28;20460;-63
2022/10/28 10:07:31;;;;;;;8.07;5.37;;;20.30;99.90;;;;;;5075110;28;20444;-64
2022/10/28 10:10:01;;;;;;;7.70;4.40;;;20.40;99.90;;;;;;5075358;28;20494;-63
2022/10/28 10:12:31;;;;;;;9.53;4.03;;;20.60;99.90;;;;;;5074817;28;20475;-63
2022/10/28 10:14:59;;;;;;;4.53;3.40;;;20.70;99.90;;;;;;5074799;28;20486;-63
2022/10/28 10:17:32;;;;;;;10.13;4.20;;;20.90;99.90;;;;;;5074685;28;20456;-63
2022/10/28 10:20:05;;;;;;;15.67;6.23;;;21.00;99.90;;;;;;5075064;28;20436;-63
2022/10/28 10:22:34;;;;;;;6.30;3.93;;;21.20;99.90;;;;;;5075029;28;20579;-63
2022/10/28 10:25:02;;;;;;;10.77;4.17;;;21.20;99.90;;;;;;5074714;28;20814;-63
2022/10/28 10:27:30;;;;;;;16.47;6.00;;;21.60;99.90;;;;;;5073704;28;20455;-63
2022/10/28 10:29:58;;;;;;;10.57;5.20;;;21.50;99.90;;;;;;5074851;28;20539;-63
2022/10/28 10:32:29;;;;;;;9.80;5.17;;;21.50;99.90;;;;;;5074481;28;20548;-63
2022/10/28 10:35:02;;;;;;;7.83;4.40;;;21.20;99.90;;;;;;5074654;28;20431;-63
2022/10/28 10:37:33;;;;;;;6.23;3.90;;;21.10;99.90;;;;;;5074697;28;20428;-63
2022/10/28 10:40:12;;;;;;;7.97;4.20;;;21.10;99.90;;;;;;5075002;28;20434;-64
2022/10/28 10:42:39;;;;;;;9.23;4.07;;;21.20;99.90;;;;;;5074582;28;20503;-64
2022/10/28 10:45:24;;;;;;;11.20;3.93;;;21.20;99.90;;;;;;5074237;28;20806;-63
2022/10/28 10:48:07;;;;;;;6.47;4.33;;;21.40;99.90;;;;;;5074780;28;20447;-64
2022/10/28 10:50:37;;;;;;;9.50;4.90;;;21.50;99.90;;;;;;5074500;28;20554;-64
2022/10/28 10:53:05;;;;;;;15.17;5.73;;;21.40;99.90;;;;;;5074532;28;20464;-64
2022/10/28 10:55:36;;;;;;;6.93;4.87;;;21.40;99.90;;;;;;5074184;28;20506;-64
2022/10/28 10:58:04;;;;;;;8.40;4.00;;;21.40;99.90;;;;;;5074504;28;20444;-63
2022/10/28 11:00:35;;;;;;;6.67;4.03;;;21.20;99.90;;;;;;5073994;28;20832;-64
2022/10/28 11:03:05;;;;;;;7.83;3.60;;;21.40;99.90;;;;;;5074464;28;20480;-64
2022/10/28 11:05:33;;;;;;;6.47;4.03;;;21.60;99.90;;;;;;5074455;28;20453;-65
2022/10/28 11:08:05;;;;;;;9.77;4.23;;;21.70;99.90;;;;;;5074374;28;20444;-64
2022/10/28 11:10:34;;;;;;;6.00;4.53;;;21.60;99.90;;;;;;5074559;28;20437;-64
2022/10/28 11:13:05;;;;;;;8.63;3.97;;;21.80;99.90;;;;;;5074308;28;20469;-64
2022/10/28 11:15:33;;;;;;;19.57;5.60;;;22.00;99.90;;;;;;5053978;28;20433;-64
2022/10/28 11:18:02;;;;;;;25.23;5.73;;;22.00;99.90;;;;;;5053885;28;20477;-64
2022/10/28 11:20:42;;;;;;;20.80;5.67;;;22.10;99.90;;;;;;5053843;28;20532;-64
2022/10/28 11:23:29;;;;;;;19.47;4.63;;;22.00;99.90;;;;;;5054012;28;20962;-65
2022/10/28 11:26:01;;;;;;;6.60;3.63;;;21.90;99.90;;;;;;5053921;28;20520;-64
2022/10/28 11:28:46;;;;;;;8.00;4.00;;;21.90;99.90;;;;;;5053561;28;20434;-64
2022/10/28 11:31:39;;;;;;;11.63;5.30;;;21.80;99.90;;;;;;5053573;28;20524;-64
2022/10/28 11:34:31;;;;;;;13.53;6.27;;;21.80;99.90;;;;;;5053267;28;20972;-63
2022/10/28 11:37:11;;;;;;;13.10;5.73;;;21.70;99.90;;;;;;5054121;28;20436;-64
2022/10/28 11:39:49;;;;;;;11.57;5.33;;;21.50;99.90;;;;;;5053667;28;20947;-58
2022/10/28 11:42:27;;;;;;;6.73;3.67;;;21.40;99.90;;;;;;5053468;28;20555;-61
2022/10/28 11:45:00;;;;;;;5.90;3.73;;;21.70;99.90;;;;;;5053372;28;20469;-58
2022/10/28 11:47:48;;;;;;;10.63;4.57;;;22.50;99.90;;;;;;5039002;28;20485;-61
2022/10/28 11:50:34;;;;;;;7.33;4.07;;;22.80;99.90;;;;;;5050257;28;20519;-57
2022/10/28 11:53:27;;;;;;;10.90;4.37;;;22.40;99.90;;;;;;5049656;28;20467;-58
2022/10/28 11:56:04;;;;;;;6.20;3.70;;;22.70;99.90;;;;;;5048430;28;20561;-57
2022/10/28 11:58:39;;;;;;;7.83;4.57;;;23.20;99.90;;;;;;5043127;28;20457;-57
2022/10/28 12:01:25;;;;;;;7.90;4.53;;;23.30;99.90;;;;;;5051869;28;20459;-55
2022/10/28 12:04:20;;;;;;;8.50;4.63;;;22.50;99.90;;;;;;5056331;28;20487;-56
2022/10/28 12:07:07;;;;;;;7.90;3.87;;;23.00;99.90;;;;;;5040232;28;20450;-54
2022/10/28 12:09:45;;;;;;;7.53;4.50;;;23.40;99.90;;;;;;5046631;28;20458;-57
2022/10/28 12:12:23;;;;;;;6.53;4.57;;;24.00;99.90;;;;;;5041046;28;20478;-55
2022/10/28 12:14:59;;;;;;;8.57;4.77;;;24.40;99.90;;;;;;5057322;28;20479;-60
2022/10/28 12:17:34;;;;;;;8.00;5.00;;;24.60;99.90;;;;;;5069202;28;20803;-55
2022/10/28 12:20:08;;;;;;;17.80;5.03;;;24.80;99.90;;;;;;5067706;28;20447;-59
2022/10/28 12:22:45;;;;;;;12.13;4.27;;;24.90;99.90;;;;;;5058139;28;20483;-57
2022/10/28 12:25:16;;;;;;;7.03;3.77;;;25.00;99.90;;;;;;5069307;28;20477;-60
2022/10/28 12:27:49;;;;;;;8.40;4.63;;;25.30;99.90;;;;;;5059160;28;20456;-57
2022/10/28 12:30:20;;;;;;;9.47;4.67;;;25.60;99.90;;;;;;5064341;28;20460;-55
2022/10/28 12:32:53;;;;;;;12.33;5.10;;;25.70;99.90;;;;;;5065596;28;21002;-59
2022/10/28 12:35:24;;;;;;;9.50;4.20;;;25.50;99.90;;;;;;5072924;28;20448;-58
2022/10/28 12:37:56;;;;;;;6.23;4.60;;;24.90;99.90;;;;;;5064891;28;20510;-53
2022/10/28 12:40:27;;;;;;;5.40;3.67;;;24.10;99.90;;;;;;5069151;28;20445;-57
2022/10/28 12:42:59;;;;;;;8.30;4.10;;;24.30;99.90;;;;;;5066900;28;20483;-61
2022/10/28 12:45:30;;;;;;;8.60;5.00;;;23.80;99.90;;;;;;5060412;28;20420;-58
2022/10/28 12:48:04;;;;;;;7.03;4.77;;;23.50;99.90;;;;;;5073379;28;20459;-68
2022/10/28 12:50:38;;;;;;;7.40;4.53;;;23.40;99.90;;;;;;5079824;28;20493;-59
2022/10/28 12:53:24;;;;;;;7.20;4.30;;;23.80;99.90;;;;;;5075914;28;20479;-57
2022/10/28 12:55:57;;;;;;;7.13;3.90;;;24.40;99.90;;;;;;5073370;28;20448;-57
2022/10/28 12:58:31;;;;;;;9.67;3.87;;;24.80;99.90;;;;;;5072557;28;20517;-57
2022/10/28 13:01:01;;;;;;;12.07;4.03;;;25.00;99.90;;;;;;5079076;28;20456;-58
2022/10/28 13:03:28;;;;;;;10.93;3.73;;;25.00;99.90;;;;;;5073637;28;20602;-57